Time;durP1;ratioP1;P1;durP2;ratioP2;P2;SDS_P1;SDS_P2;PMS_P1;PMS_P2;Temp;Humidity;BMP_temperature;BMP_pressure;BME280_temperature;BME280_humidity;BME280_pressure;Samples;Min_cycle;Max_cycle;Signal;HPM_P1;HPM_P2
2022/04/21 02:59:35;;;;;;;;;;;;;;;;;;;;;
2022/04/21 03:18:19;;;;;;;;;;;;;;;;;;;;;
2022/04/21 03:36:55;;;;;;;;;;;;;;;;;;;;;
2022/04/21 03:46:24;;;;;;;;;;;;;;;;;;;;;
2022/04/21 03:54:53;;;;;;;;;4.00;4.00;;;;;;;;2;261103002;261103002;-77
2022/04/21 05:37:43;;;;;;;;;;;;;;;;;;;;;
2022/04/21 05:46:22;;;;;;;;;;;;;;;;;;;;;
2022/04/21 05:55:23;;;;;;;;;15.00;7.00;;;;;;;;2;261107597;261107597;-77
2022/04/21 06:03:41;;;;;;;;;8.50;8.50;;;;;;;;2;261087013;261087013;-77
2022/04/21 06:12:42;;;;;;;;;9.00;6.00;;;;;;;;2;261085403;261085403;-77
2022/04/21 06:20:57;;;;;;;;;10.00;10.00;;;;;;;;2;261084406;261084406;-78
2022/04/21 06:48:48;;;;;;;;;4.50;4.50;;;;;;;;2;261087211;261087211;-78
2022/04/21 06:57:28;;;;;;;;;4.50;4.50;;;;;;;;2;261084577;261084577;-78
2022/04/21 07:06:28;;;;;;;;;10.50;10.50;;;;;;;;2;261086399;261086399;-77
2022/04/21 07:14:44;;;;;;;;;8.00;8.00;;;;;;;;2;261083133;261083133;-77
2022/04/21 07:23:44;;;;;;;;;11.00;11.00;;;;;;;;2;261082559;261082559;-78
2022/04/21 07:32:05;;;;;;;;;7.50;7.50;;;;;;;;2;261079429;261079429;-78
2022/04/21 07:41:11;;;;;;;;;10.50;10.50;;;;;;;;2;261080147;261080147;-78
2022/04/21 11:30:45;;;;;;;;;;;;;;;;;;;;;
2022/04/21 11:40:08;;;;;;;;;;;;;;;;;;;;;
2022/04/21 11:48:49;;;;;;;;;9.50;9.50;;;;;;;;2;261109876;261109876;-79
2022/04/21 11:57:54;;;;;;;;;8.50;8.50;;;;;;;;2;261080264;261080264;-79
2022/04/21 12:06:28;;;;;;;;;8.50;8.50;;;;;;;;2;261078894;261078894;-79
2022/04/21 12:15:47;;;;;;;;;7.00;7.00;;;;;;;;2;261077313;261077313;-79
2022/04/21 12:34:10;;;;;;;;;7.00;7.00;;;;;;;;2;261076480;261076480;-78
2022/04/21 12:42:57;;;;;;;;;;;;;;;;;;;;;
2022/04/21 12:52:31;;;;;;;;;;;;;;;;;;;;;
2022/04/21 13:10:38;;;;;;;;;3.50;3.50;;;;;;;;2;261074629;261074629;-78
2022/04/21 13:18:55;;;;;;;;;9.00;9.00;;;;;;;;2;261077508;261077508;-77
2022/04/21 13:27:56;;;;;;;;;6.00;6.00;;;;;;;;2;261075289;261075289;-78
2022/04/21 13:36:11;;;;;;;;;15.00;11.00;;;;;;;;2;261077301;261077301;-78
2022/04/21 13:45:12;;;;;;;;;12.00;12.00;;;;;;;;2;261074116;261074116;-79
2022/04/21 13:53:33;;;;;;;;;8.50;8.50;;;;;;;;2;261079120;261079120;-80
2022/04/21 14:02:43;;;;;;;;;5.50;5.50;;;;;;;;2;261074407;261074407;-79
2022/04/21 14:11:13;;;;;;;;;4.50;4.50;;;;;;;;2;261072082;261072082;-79
2022/04/21 14:20:18;;;;;;;;;11.50;7.50;;;;;;;;2;261074074;261074074;-79
2022/04/21 14:28:38;;;;;;;;;5.50;5.50;;;;;;;;2;261075569;261075569;-78
2022/04/21 16:55:09;;;;;;;;;0.50;0.50;;;;;;;;2;261080556;261080556;-78
2022/04/21 17:04:13;;;;;;;;;4.50;1.50;;;;;;;;2;261077027;261077027;-78
2022/04/21 17:12:28;;;;;;;;;12.50;0.50;;;;;;;;2;260967760;260967760;-78
2022/04/21 17:21:37;;;;;;;;;0.50;0.50;;;;;;;;2;259073834;259073834;-78
2022/04/21 17:29:59;;;;;;;;;3.50;3.50;;;;;;;;2;261076937;261076937;-79
2022/04/21 17:39:09;;;;;;;;;5.50;5.50;;;;;;;;2;261083635;261083635;-79
2022/04/21 17:48:03;;;;;;;;;;;;;;;;;;;;;
2022/04/21 17:57:45;;;;;;;;;3.50;3.50;;;;;;;;2;261107188;261107188;-79
2022/04/21 18:16:16;;;;;;;;;;;;;;;;;;;;;
2022/04/21 18:43:16;;;;;;;;;3.50;3.50;;;;;;;;2;261083870;261083870;-78
2022/04/21 18:52:17;;;;;;;;;4.00;4.00;;;;;;;;2;261079949;261079949;-78
2022/04/21 19:00:08;;;;;;;;;4.50;4.50;;;;;;;;2;261085235;261085235;-77
2022/04/21 19:46:23;;;;;;;;;12.25;10.25;;;;;;;;6318794;22;136697;-76
2022/04/21 19:48:48;;;;;;;;;12.75;9.25;;;;;;;;6267971;22;45382;-75
2022/04/21 19:51:16;;;;;;;;;10.00;9.00;;;;;;;;6286244;22;45299;-75
2022/04/21 19:53:44;;;;;;;;;14.75;12.75;;;;;;;;6285573;22;45229;-75
2022/04/21 19:56:10;;;;;;;;;9.75;8.25;;;;;;;;6286286;22;46414;-75
2022/04/21 20:15:08;;;;;;;;;5.00;5.00;;;;;;;;2;261073419;261073419;-76
2022/04/21 20:23:25;;;;;;;;;8.50;8.50;;;;;;;;2;261077130;261077130;-75
2022/04/21 20:32:28;;;;;;;;;7.50;7.50;;;;;;;;2;261080232;261080232;-76
2022/04/21 20:40:43;;;;;;;;;18.50;6.50;;;;;;;;2;261076408;261076408;-77
2022/04/21 20:49:44;;;;;;;;;1.00;1.00;;;;;;;;2;261077128;261077128;-77
2022/04/21 20:58:09;;;;;;;;;;;;;;;;;;;;;
2022/04/21 21:07:17;;;;;;;;;12.50;10.50;;;;;;;;2;261105616;261105616;-75
2022/04/21 21:16:06;;;;;;;;;;;;;;;;;;;;;
2022/04/21 21:34:55;;;;;;;;;;;;;;;;;;;;;
2022/04/21 22:59:21;;;;;;;;;;;;;;;;;;;;;
2022/04/21 23:08:10;;;;;;;;;;;;;;;;;;;;;
2022/04/21 23:17:42;;;;;;;;;;;;;;;;;;;;;
2022/04/21 23:25:56;;;;;;;;;4.50;4.50;;;;;;;;2;261079897;261079897;-77
